Time;durP1;ratioP1;P1;durP2;ratioP2;P2;SDS_P1;SDS_P2;PMS_P1;PMS_P2;Temp;Humidity;BMP_temperature;BMP_pressure;BME280_temperature;BME280_humidity;BME280_pressure;Samples;Min_cycle;Max_cycle;Signal;HPM_P1;HPM_P2
2023/10/04 18:23:31;;;;;;;15.20;6.00;;;;;;;14.46;59.64;100017.96;104230;1286;647831;-91
2023/10/04 18:29:21;;;;;;;16.90;4.90;;;;;;;14.24;59.95;100015.82;106578;1263;94122;-91
2023/10/04 18:31:51;;;;;;;18.90;5.90;;;;;;;14.15;60.00;100013.09;107805;1260;107193;-91
2023/10/04 18:34:25;;;;;;;16.90;5.70;;;;;;;14.05;60.00;100014.00;108018;1260;94434;-92
2023/10/04 18:36:59;;;;;;;16.90;6.00;;;;;;;13.99;60.13;100016.73;108373;1255;106316;-91
2023/10/04 18:39:31;;;;;;;17.50;5.30;;;;;;;13.93;60.12;100020.71;108321;1255;92550;-91
2023/10/04 18:42:00;;;;;;;12.60;4.80;;;;;;;13.87;60.15;100018.70;108110;1255;93859;-91
2023/10/04 18:44:29;;;;;;;15.00;4.90;;;;;;;13.81;60.18;100021.23;108080;1255;105861;-91
2023/10/04 19:22:48;;;;;;;15.60;5.60;;;;;;;13.32;60.60;100043.26;104422;1266;106276;-91
2023/10/04 19:25:50;;;;;;;19.30;5.90;;;;;;;13.28;60.73;100043.18;106035;1270;94285;-90
2023/10/04 19:28:26;;;;;;;16.40;5.70;;;;;;;13.24;60.76;100041.45;105967;1276;95294;-91
2023/10/04 19:31:15;;;;;;;12.00;5.00;;;;;;;13.25;60.74;100045.36;105823;1272;108614;-91
2023/10/04 19:34:10;;;;;;;13.40;4.70;;;;;;;13.24;60.71;100044.55;105949;1274;95352;-91
2023/10/04 19:36:41;;;;;;;19.60;5.40;;;;;;;13.21;60.80;100045.44;106082;1277;108759;-91
2023/10/04 19:39:47;;;;;;;17.30;5.50;;;;;;;13.19;60.81;100045.92;105615;1279;95303;-92
2023/10/04 19:42:53;;;;;;;16.70;5.30;;;;;;;13.16;60.87;100046.19;105678;1274;95200;-92
2023/10/04 19:46:09;;;;;;;14.40;5.50;;;;;;;13.13;60.95;100046.72;105673;1272;108428;-91
2023/10/04 19:49:03;;;;;;;13.00;5.10;;;;;;;13.12;61.00;100046.63;105942;1273;95572;-90
2023/10/04 19:51:58;;;;;;;11.50;5.00;;;;;;;13.09;61.01;100048.21;106116;1272;107705;-90
2023/10/04 19:55:31;;;;;;;;;;;;;;;;;;;;;
2023/10/04 19:58:05;;;;;;;15.90;5.40;;;;;;;12.99;61.08;100048.04;105860;1276;95173;-92
2023/10/04 20:01:06;;;;;;;16.60;5.80;;;;;;;12.95;61.03;100049.66;105555;1274;109004;-91
2023/10/04 20:03:42;;;;;;;18.70;6.50;;;;;;;12.93;61.12;100048.74;105667;1273;96744;-92
2023/10/04 20:35:35;;;;;;;15.60;5.20;;;;;;;12.63;61.47;100040.34;100710;1271;95649;-87
2023/10/04 20:38:29;;;;;;;12.60;4.70;;;;;;;12.60;61.43;100041.83;105440;1276;108308;-92
2023/10/04 20:41:03;;;;;;;15.50;5.80;;;;;;;12.58;61.59;100039.46;105603;1278;96211;-92
2023/10/04 20:44:08;;;;;;;15.10;5.90;;;;;;;12.57;61.56;100038.83;105811;1276;95206;-91
2023/10/04 20:47:03;;;;;;;17.40;5.50;;;;;;;12.54;61.61;100034.44;105574;1276;108718;-91
2023/10/04 20:49:48;;;;;;;17.50;5.40;;;;;;;12.52;61.57;100039.12;105680;1276;95816;-92
2023/10/04 20:52:38;;;;;;;14.50;5.50;;;;;;;12.49;61.69;100036.16;105425;1274;107528;-92
2023/10/04 20:55:24;;;;;;;15.40;5.60;;;;;;;12.45;61.59;100035.09;105592;1276;95337;-91
2023/10/04 20:57:54;;;;;;;14.90;5.50;;;;;;;12.42;61.65;100034.27;105547;1276;95285;-91
2023/10/04 21:00:27;;;;;;;14.30;5.60;;;;;;;12.42;61.77;100031.59;105648;1272;108082;-89
2023/10/04 21:02:57;;;;;;;16.50;5.60;;;;;;;12.41;61.72;100028.13;105656;1272;96129;-91
2023/10/04 21:05:52;;;;;;;13.30;4.40;;;;;;;12.39;61.74;100031.45;105501;1272;108072;-91
2023/10/04 21:08:46;;;;;;;12.70;5.20;;;;;;;12.36;61.86;100031.27;105575;1276;96501;-92
2023/10/04 21:11:35;;;;;;;15.50;5.00;;;;;;;12.34;61.88;100028.00;105461;1278;95329;-92
2023/10/04 21:14:26;;;;;;;15.40;4.80;;;;;;;12.35;61.89;100031.16;105650;1273;108761;-91
2023/10/04 21:17:00;;;;;;;12.90;4.80;;;;;;;12.33;61.89;100029.71;105493;1274;95295;-91
2023/10/04 21:19:54;;;;;;;13.90;4.70;;;;;;;12.30;61.95;100030.78;105595;1273;107774;-91
2023/10/04 21:22:29;;;;;;;13.20;5.10;;;;;;;12.30;62.07;100035.05;105640;1272;95353;-92
2023/10/04 21:25:59;;;;;;;;;;;;;;;;;;;;;
2023/10/04 21:29:15;;;;;;;;;;;;;;;;;;;;;
2023/10/04 21:32:55;;;;;;;14.70;4.90;;;;;;;12.25;62.10;100031.67;105522;1273;95195;-91
2023/10/04 21:36:11;;;;;;;15.00;4.90;;;;;;;12.23;62.16;100031.02;105653;1273;107834;-90
2023/10/04 21:41:52;;;;;;;;;;;;;;;;;;;;;
